createdAt,value
2022-08-03T00:00:50.901Z,99498.94
2022-08-03T00:01:52.423Z,99494.59
2022-08-03T00:02:54.091Z,99498.94
2022-08-03T00:03:55.747Z,99494.03
2022-08-03T00:04:57.218Z,99497.41
2022-08-03T00:06:04.763Z,99496.22
2022-08-03T00:07:06.676Z,99497.69
2022-08-03T00:08:08.163Z,99496.84
2022-08-03T00:09:10.731Z,99501.06
2022-08-03T00:10:13.455Z,99499.75
2022-08-03T00:11:14.920Z,99503.59
2022-08-03T00:12:16.744Z,99499.47
2022-08-03T00:13:18.380Z,99495.31
2022-08-03T00:14:19.851Z,99493.50
2022-08-03T00:15:21.377Z,99504.31
2022-08-03T00:16:22.834Z,99499.63
2022-08-03T00:17:24.607Z,99500.34
2022-08-03T00:18:26.107Z,99506.56
2022-08-03T00:19:27.734Z,99504.38
2022-08-03T00:20:29.199Z,99495.31
2022-08-03T00:21:30.702Z,99501.28
2022-08-03T00:22:35.263Z,99503.31
2022-08-03T00:23:52.291Z,99507.81
2022-08-03T00:24:54.272Z,99504.84
2022-08-03T00:25:56.675Z,99506.19
2022-08-03T00:26:58.164Z,99503.88
2022-08-03T00:27:59.676Z,99503.25
2022-08-03T00:29:01.117Z,99512.03
2022-08-03T00:30:02.737Z,99509.53
2022-08-03T00:31:04.277Z,99503.75
2022-08-03T00:32:06.075Z,99503.56
2022-08-03T00:33:11.100Z,99502.44
2022-08-03T00:34:12.619Z,99509.06
2022-08-03T00:35:28.041Z,99508.56
2022-08-03T00:36:35.685Z,99511.16
2022-08-03T00:37:40.589Z,99508.50
2022-08-03T00:38:43.226Z,99506.03
2022-08-03T00:39:44.675Z,99499.72
2022-08-03T00:40:46.545Z,99500.25
2022-08-03T00:41:47.984Z,99502.75
2022-08-03T00:43:09.731Z,99507.88
2022-08-03T00:44:11.166Z,99506.34
2022-08-03T00:45:12.636Z,99508.72
2022-08-03T00:46:19.026Z,99511.09
2022-08-03T00:47:22.687Z,99517.06
2022-08-03T00:48:33.470Z,99506.41
2022-08-03T00:49:35.731Z,99506.22
2022-08-03T00:50:42.223Z,99510.25
2022-08-03T00:51:43.800Z,99510.41
2022-08-03T00:52:46.689Z,99507.94
2022-08-03T00:53:48.900Z,99511.13
2022-08-03T00:54:50.412Z,99502.78
2022-08-03T00:55:51.903Z,99503.13
2022-08-03T00:56:59.581Z,99506.97
2022-08-03T00:58:03.593Z,99507.81
2022-08-03T00:59:05.206Z,99501.88
2022-08-03T01:00:08.591Z,99498.25
2022-08-03T01:01:10.747Z,99503.38
2022-08-03T01:02:12.289Z,99502.22
2022-08-03T01:03:13.765Z,99498.25
2022-08-03T01:04:15.409Z,99499.06
2022-08-03T01:05:17.828Z,99492.09
2022-08-03T01:06:28.707Z,99496.41
2022-08-03T01:07:45.363Z,99500.91
2022-08-03T01:08:54.911Z,99504.09
2022-08-03T01:10:10.223Z,99501.47
2022-08-03T01:12:05.401Z,99497.97
2022-08-03T01:13:06.834Z,99500.97
2022-08-03T01:14:39.465Z,99505.59
2022-08-03T01:15:50.342Z,99503.44
2022-08-03T01:16:59.294Z,99502.63
2022-08-03T01:18:25.825Z,99502.63
2022-08-03T01:19:56.253Z,99501.63
2022-08-03T01:21:03.758Z,99505.75
2022-08-03T01:22:22.826Z,99504.44
2022-08-03T01:23:32.958Z,99507.41
2022-08-03T01:25:08.136Z,99507.91
2022-08-03T01:26:17.728Z,99505.09
2022-08-03T01:27:23.084Z,99511.22
2022-08-03T01:28:41.892Z,99500.25
2022-08-03T01:29:52.468Z,99502.44
2022-08-03T01:30:58.847Z,99501.44
2022-08-03T01:32:59.812Z,99502.09
2022-08-03T01:33:36.181Z,99502.41
2022-08-03T01:34:52.311Z,99507.38
2022-08-03T01:36:02.201Z,99502.75
2022-08-03T01:37:07.399Z,99501.44
2022-08-03T01:38:13.547Z,99497.97
2022-08-03T01:39:16.423Z,99495.94
2022-08-03T01:40:20.444Z,99495.31
2022-08-03T01:41:29.725Z,99496.63
2022-08-03T01:42:33.585Z,99499.63
2022-08-03T01:44:26.406Z,99492.16
2022-08-03T01:45:00.799Z,99491.63
2022-08-03T01:46:03.796Z,99500.91
2022-08-03T01:47:07.229Z,99501.28
2022-08-03T01:48:11.752Z,99502.09
2022-08-03T01:49:13.831Z,99497.59
2022-08-03T01:50:18.963Z,99499.94
2022-08-03T01:51:22.266Z,99501.94
2022-08-03T01:52:25.167Z,99502.28
2022-08-03T01:53:28.018Z,99496.97
2022-08-03T01:54:30.543Z,99492.31
2022-08-03T01:55:33.480Z,99496.16
2022-08-03T01:56:37.037Z,99492.66
2022-08-03T01:58:06.315Z,99493.00
2022-08-03T01:59:03.238Z,99489.66
2022-08-03T02:00:06.286Z,99495.81
2022-08-03T02:01:15.186Z,99494.66
2022-08-03T02:02:32.628Z,99487.84
2022-08-03T02:04:00.706Z,99484.88
2022-08-03T02:05:11.068Z,99487.69
2022-08-03T02:07:00.330Z,99487.69
2022-08-03T02:07:39.679Z,99488.34
2022-08-03T02:08:43.148Z,99486.69
2022-08-03T02:09:49.621Z,99487.19
2022-08-03T02:10:52.856Z,99485.34
2022-08-03T02:11:55.727Z,99496.31
2022-08-03T02:13:01.214Z,99493.34
2022-08-03T02:14:05.159Z,99488.19
2022-08-03T02:15:07.744Z,99490.00
2022-08-03T02:16:10.402Z,99490.84
2022-08-03T02:17:14.038Z,99490.19
2022-08-03T02:18:18.041Z,99481.06
2022-08-03T02:19:19.882Z,99485.53
2022-08-03T02:20:21.795Z,99482.38
2022-08-03T02:21:56.559Z,99488.16
2022-08-03T02:22:46.464Z,99489.66
2022-08-03T02:23:48.056Z,99491.50
2022-08-03T02:24:51.184Z,99491.16
2022-08-03T02:26:02.852Z,99490.84
2022-08-03T02:27:18.258Z,99491.00
2022-08-03T02:28:22.172Z,99494.97
2022-08-03T02:29:39.401Z,99494.81
2022-08-03T02:30:45.315Z,99489.00
2022-08-03T02:31:49.716Z,99486.34
2022-08-03T02:32:57.765Z,99490.34
2022-08-03T02:34:06.496Z,99490.81
2022-08-03T02:35:12.043Z,99494.00
2022-08-03T02:36:15.996Z,99495.31
2022-08-03T02:37:19.604Z,99495.31
2022-08-03T02:38:26.132Z,99495.47
2022-08-03T02:39:31.308Z,99501.31
2022-08-03T02:40:33.247Z,99498.31
2022-08-03T02:41:43.352Z,99500.47
2022-08-03T02:42:47.100Z,99500.47
2022-08-03T02:44:06.333Z,99490.84
2022-08-03T02:45:11.883Z,99498.66
2022-08-03T02:46:17.224Z,99496.00
2022-08-03T02:47:20.240Z,99497.66
2022-08-03T02:48:28.754Z,99499.13
2022-08-03T02:49:41.111Z,99494.00
2022-08-03T02:50:54.566Z,99492.34
2022-08-03T02:51:58.251Z,99503.78
2022-08-03T02:53:01.516Z,99492.66
2022-08-03T02:54:04.151Z,99492.00
2022-08-03T02:55:09.396Z,99494.50
2022-08-03T02:56:11.743Z,99494.16
2022-08-03T02:57:15.025Z,99494.34
2022-08-03T02:58:19.605Z,99494.66
2022-08-03T02:59:21.865Z,99490.69
2022-08-03T03:00:28.135Z,99493.34
2022-08-03T03:01:31.469Z,99493.34
2022-08-03T03:02:34.238Z,99495.00
2022-08-03T03:03:44.638Z,99494.97
2022-08-03T03:05:51.744Z,99496.50
2022-08-03T03:06:10.765Z,99500.47
2022-08-03T03:07:16.833Z,99502.28
2022-08-03T03:08:20.860Z,99497.31
2022-08-03T03:09:40.089Z,99504.09
2022-08-03T03:10:44.276Z,99501.44
2022-08-03T03:11:46.104Z,99496.13
2022-08-03T03:12:50.227Z,99498.63
2022-08-03T03:13:53.604Z,99501.59
2022-08-03T03:14:55.206Z,99505.75
2022-08-03T03:16:00.616Z,99507.25
2022-08-03T03:17:03.200Z,99504.28
2022-08-03T03:18:06.919Z,99505.41
2022-08-03T03:19:08.705Z,99505.41
2022-08-03T03:20:11.300Z,99504.09
2022-08-03T03:21:16.206Z,99508.38
2022-08-03T03:22:20.535Z,99505.41
2022-08-03T03:23:23.840Z,99502.44
2022-08-03T03:24:26.576Z,99510.72
2022-08-03T03:25:31.511Z,99499.94
2022-08-03T03:26:34.462Z,99506.09
2022-08-03T03:27:36.392Z,99507.56
2022-08-03T03:28:37.975Z,99508.72
2022-08-03T03:29:39.988Z,99511.38
2022-08-03T03:30:42.187Z,99513.22
2022-08-03T03:31:43.726Z,99507.06
2022-08-03T03:32:45.382Z,99511.69
2022-08-03T03:33:47.928Z,99510.19
2022-08-03T03:34:49.861Z,99508.53
2022-08-03T03:35:53.419Z,99511.34
2022-08-03T03:36:54.939Z,99515.16
2022-08-03T03:37:56.829Z,99512.63
2022-08-03T03:38:58.334Z,99509.31
2022-08-03T03:39:59.831Z,99510.81
2022-08-03T03:41:01.820Z,99518.44
2022-08-03T03:42:04.492Z,99510.94
2022-08-03T03:43:12.737Z,99511.31
2022-08-03T03:44:14.325Z,99516.13
2022-08-03T03:45:16.426Z,99513.66
2022-08-03T03:46:18.239Z,99514.00
2022-08-03T03:47:32.230Z,99519.16
2022-08-03T03:48:34.520Z,99520.00
2022-08-03T03:49:36.377Z,99517.66
2022-08-03T03:50:38.264Z,99518.81
2022-08-03T03:51:39.719Z,99515.66
2022-08-03T03:52:41.316Z,99510.34
2022-08-03T03:53:59.617Z,99510.81
2022-08-03T03:55:01.754Z,99514.47
2022-08-03T03:56:03.743Z,99511.97
2022-08-03T03:57:05.268Z,99520.44
2022-08-03T03:58:07.082Z,99515.47
2022-08-03T03:59:08.569Z,99520.69
2022-08-03T04:00:12.301Z,99518.91
2022-08-03T04:01:14.182Z,99514.13
2022-08-03T04:02:16.051Z,99524.59
2022-08-03T04:03:17.647Z,99521.28
2022-08-03T04:04:19.107Z,99522.13
2022-08-03T04:05:20.558Z,99525.44
2022-08-03T04:06:22.130Z,99523.47
2022-08-03T04:07:25.767Z,99526.78
2022-08-03T04:08:27.236Z,99518.53
2022-08-03T04:09:29.953Z,99518.34
2022-08-03T04:10:33.863Z,99522.16
2022-08-03T04:11:40.511Z,99525.59
2022-08-03T04:12:50.150Z,99524.59
2022-08-03T04:14:02.149Z,99528.78
2022-08-03T04:15:05.900Z,99529.75
2022-08-03T04:16:10.528Z,99524.81
2022-08-03T04:17:13.302Z,99526.16
2022-08-03T04:18:17.008Z,99523.00
2022-08-03T04:19:26.716Z,99529.31
2022-08-03T04:20:31.775Z,99529.66
2022-08-03T04:21:35.501Z,99528.34
2022-08-03T04:22:37.808Z,99525.53
2022-08-03T04:23:44.398Z,99525.19
2022-08-03T04:25:09.091Z,99525.72
2022-08-03T04:26:15.095Z,99534.84
2022-08-03T04:27:20.700Z,99528.53
2022-08-03T04:28:30.425Z,99530.03
2022-08-03T04:29:35.278Z,99534.50
2022-08-03T04:30:40.682Z,99531.84
2022-08-03T04:31:43.191Z,99529.19
2022-08-03T04:32:46.993Z,99535.50
2022-08-03T04:33:52.612Z,99532.50
2022-08-03T04:34:54.435Z,99533.00
2022-08-03T04:36:02.909Z,99532.69
2022-08-03T04:37:16.176Z,99527.56
2022-08-03T04:38:19.246Z,99537.47
2022-08-03T04:39:24.987Z,99533.19
2022-08-03T04:40:39.597Z,99539.81
2022-08-03T04:42:04.315Z,99537.50
2022-08-03T04:43:06.235Z,99538.66
2022-08-03T04:44:08.963Z,99532.53
2022-08-03T04:45:15.574Z,99533.16
2022-08-03T04:46:19.212Z,99541.66
2022-08-03T04:47:20.885Z,99539.81
2022-08-03T04:48:22.741Z,99533.19
2022-08-03T04:49:25.183Z,99543.16
2022-08-03T04:50:27.286Z,99537.84
2022-08-03T04:51:40.996Z,99539.53
2022-08-03T04:52:42.972Z,99540.84
2022-08-03T04:53:44.643Z,99526.72
2022-08-03T04:54:50.475Z,99542.16
2022-08-03T04:55:52.444Z,99531.03
2022-08-03T04:56:53.951Z,99531.53
2022-08-03T04:57:55.933Z,99537.69
2022-08-03T04:58:57.379Z,99532.88
2022-08-03T05:00:03.168Z,99535.19
2022-08-03T05:01:05.111Z,99534.34
2022-08-03T05:02:06.641Z,99535.00
2022-08-03T05:03:23.740Z,99532.47
2022-08-03T05:04:26.004Z,99538.34
2022-08-03T05:05:37.844Z,99535.03
2022-08-03T05:06:55.156Z,99527.56
2022-08-03T05:07:57.377Z,99532.69
2022-08-03T05:09:02.320Z,99528.03
2022-08-03T05:10:14.817Z,99530.38
2022-08-03T05:11:17.866Z,99537.84
2022-08-03T05:12:19.323Z,99540.16
2022-08-03T05:13:20.810Z,99532.31
2022-08-03T05:14:27.967Z,99531.47
2022-08-03T05:15:29.851Z,99534.22
2022-08-03T05:16:31.388Z,99535.69
2022-08-03T05:17:33.050Z,99535.69
2022-08-03T05:18:34.549Z,99536.63
2022-08-03T05:19:36.030Z,99533.09
2022-08-03T05:20:37.472Z,99536.63
2022-08-03T05:21:41.683Z,99536.56
2022-08-03T05:22:53.811Z,99534.16
2022-08-03T05:23:55.303Z,99537.41
2022-08-03T05:24:56.789Z,99538.66
2022-08-03T05:25:58.230Z,99533.94
2022-08-03T05:26:59.717Z,99540.50
2022-08-03T05:28:01.211Z,99532.72
2022-08-03T05:29:02.717Z,99529.13
2022-08-03T05:30:27.288Z,99533.28
2022-08-03T05:31:26.468Z,99533.88
2022-08-03T05:32:27.952Z,99529.66
2022-08-03T05:33:29.470Z,99530.38
2022-08-03T05:34:30.943Z,99526.38
2022-08-03T05:36:01.935Z,99530.34
2022-08-03T05:36:54.236Z,99527.59
2022-08-03T05:37:55.684Z,99528.84
2022-08-03T05:39:02.252Z,99534.41
2022-08-03T05:40:04.892Z,99529.72
2022-08-03T05:41:21.891Z,99539.53
2022-08-03T05:42:25.299Z,99535.69
2022-08-03T05:43:26.767Z,99538.81
2022-08-03T05:44:28.413Z,99538.47
2022-08-03T05:45:32.149Z,99542.59
2022-08-03T05:46:33.618Z,99539.09
2022-08-03T05:47:35.090Z,99537.03
2022-08-03T05:48:36.584Z,99538.47
2022-08-03T05:49:38.114Z,99534.38
2022-08-03T05:50:42.762Z,99543.03
2022-08-03T05:51:44.787Z,99542.19
2022-08-03T05:52:46.699Z,99537.84
2022-08-03T05:53:48.987Z,99538.69
2022-08-03T05:54:55.580Z,99553.16
2022-08-03T05:56:03.455Z,99549.19
2022-08-03T05:57:16.340Z,99544.47
2022-08-03T05:58:17.942Z,99539.47
2022-08-03T05:59:37.704Z,99539.31
2022-08-03T06:00:40.008Z,99544.84
2022-08-03T06:01:41.527Z,99540.13
2022-08-03T06:02:43.113Z,99540.75
2022-08-03T06:03:45.950Z,99537.69
2022-08-03T06:04:47.392Z,99540.53
2022-08-03T06:05:55.565Z,99542.00
2022-08-03T06:07:02.084Z,99545.91
2022-08-03T06:08:03.792Z,99538.66
2022-08-03T06:09:05.374Z,99539.94
2022-08-03T06:10:35.662Z,99538.06
2022-08-03T06:11:29.213Z,99539.53
2022-08-03T06:12:30.727Z,99546.09
2022-08-03T06:13:32.541Z,99542.41
2022-08-03T06:14:33.992Z,99549.63
2022-08-03T06:15:35.478Z,99552.31
2022-08-03T06:16:36.983Z,99550.06
2022-08-03T06:17:45.725Z,99547.34
2022-08-03T06:18:47.203Z,99554.13
2022-08-03T06:19:48.651Z,99555.59
2022-08-03T06:20:50.811Z,99552.25
2022-08-03T06:21:53.819Z,99548.50
2022-08-03T06:23:01.237Z,99556.56
2022-08-03T06:24:02.977Z,99551.25
2022-08-03T06:25:10.240Z,99556.84
2022-08-03T06:26:14.465Z,99544.03
2022-08-03T06:27:16.256Z,99548.59
2022-08-03T06:28:53.367Z,99552.06
2022-08-03T06:29:39.168Z,99550.63
2022-08-03T06:30:41.124Z,99549.00
2022-08-03T06:31:42.614Z,99556.94
2022-08-03T06:32:44.563Z,99552.63
2022-08-03T06:34:33.671Z,99547.69
2022-08-03T06:35:15.167Z,99549.63
2022-08-03T06:36:16.641Z,99549.41
2022-08-03T06:37:18.095Z,99555.63
2022-08-03T06:38:19.580Z,99551.09
2022-08-03T06:39:24.007Z,99549.81
2022-08-03T06:40:25.704Z,99554.38
2022-08-03T06:41:27.962Z,99552.31
2022-08-03T06:42:29.447Z,99557.47
2022-08-03T06:43:31.212Z,99556.22
2022-08-03T06:44:37.407Z,99554.19
2022-08-03T06:45:38.901Z,99558.50
2022-08-03T06:46:40.366Z,99555.59
2022-08-03T06:47:41.851Z,99551.84
2022-08-03T06:48:46.278Z,99556.56
2022-08-03T06:50:12.738Z,99557.38
2022-08-03T06:51:09.211Z,99556.72
2022-08-03T06:52:10.659Z,99554.06
2022-08-03T06:53:19.762Z,99560.06
2022-08-03T06:54:23.144Z,99558.84
2022-08-03T06:55:24.832Z,99562.31
2022-08-03T06:56:26.281Z,99557.53
2022-08-03T06:57:27.777Z,99558.31
2022-08-03T06:58:29.288Z,99567.22
2022-08-03T07:00:09.956Z,99557.88
2022-08-03T07:00:52.688Z,99561.00
2022-08-03T07:01:54.200Z,99559.16
2022-08-03T07:02:58.287Z,99558.81
2022-08-03T07:04:00.095Z,99558.84
2022-08-03T07:05:01.603Z,99557.63
2022-08-03T07:06:03.495Z,99560.09
2022-08-03T07:07:05.050Z,99556.75
2022-08-03T07:08:06.552Z,99555.06
2022-08-03T07:09:08.082Z,99561.25
2022-08-03T07:10:10.389Z,99552.50
2022-08-03T07:11:11.832Z,99552.00
2022-08-03T07:12:13.305Z,99554.16
2022-08-03T07:13:14.800Z,99556.41
2022-08-03T07:14:16.297Z,99557.00
2022-08-03T07:15:20.250Z,99548.03
2022-08-03T07:16:39.196Z,99551.56
2022-08-03T07:17:40.656Z,99549.31
2022-08-03T07:18:42.214Z,99556.41
2022-08-03T07:19:43.672Z,99547.38
2022-08-03T07:20:45.159Z,99549.72
2022-08-03T07:21:46.612Z,99542.50
2022-08-03T07:22:48.188Z,99548.47
2022-08-03T07:23:49.668Z,99546.22
2022-08-03T07:24:51.121Z,99547.25
2022-08-03T07:25:52.877Z,99546.06
2022-08-03T07:26:54.315Z,99549.13
2022-08-03T07:27:55.839Z,99546.66
2022-08-03T07:28:57.837Z,99548.13
2022-08-03T07:29:59.523Z,99549.13
2022-08-03T07:31:00.971Z,99547.06
2022-08-03T07:32:04.235Z,99544.78
2022-08-03T07:33:05.724Z,99549.56
2022-08-03T07:34:07.215Z,99547.34
2022-08-03T07:35:24.205Z,99550.25
2022-08-03T07:36:26.890Z,99548.81
2022-08-03T07:37:29.403Z,99549.38
2022-08-03T07:38:31.076Z,99543.31
2022-08-03T07:39:32.595Z,99550.91
2022-08-03T07:40:34.160Z,99543.41
2022-08-03T07:41:35.639Z,99549.38
2022-08-03T07:42:37.086Z,99546.88
2022-08-03T07:43:38.532Z,99548.69
2022-08-03T07:44:40.073Z,99551.28
2022-08-03T07:45:41.508Z,99551.59
2022-08-03T07:46:42.993Z,99550.41
2022-08-03T07:47:53.053Z,99549.63
2022-08-03T07:48:54.890Z,99547.56
2022-08-03T07:49:56.842Z,99547.91
2022-08-03T07:50:58.316Z,99552.66
2022-08-03T07:51:59.800Z,99550.78
2022-08-03T07:53:01.253Z,99547.25
2022-08-03T07:54:03.075Z,99556.72
2022-08-03T07:55:08.679Z,99554.13
2022-08-03T07:56:11.443Z,99553.19
2022-08-03T07:57:13.142Z,99554.69
2022-08-03T07:58:16.506Z,99551.50
2022-08-03T07:59:20.824Z,99548.53
2022-08-03T08:00:22.270Z,99549.28
2022-08-03T08:01:24.195Z,99546.81
2022-08-03T08:02:25.793Z,99546.66
2022-08-03T08:03:27.268Z,99548.69
2022-08-03T08:04:28.789Z,99545.75
2022-08-03T08:05:31.275Z,99549.25
2022-08-03T08:06:32.775Z,99549.25
2022-08-03T08:07:34.276Z,99549.94
2022-08-03T08:08:35.736Z,99549.63
2022-08-03T08:09:37.387Z,99553.88
2022-08-03T08:10:38.952Z,99547.19
2022-08-03T08:11:40.416Z,99546.44
2022-08-03T08:12:41.908Z,99550.84
2022-08-03T08:13:43.383Z,99557.03
2022-08-03T08:14:44.889Z,99552.38
2022-08-03T08:15:46.447Z,99550.31
2022-08-03T08:16:49.377Z,99561.59
2022-08-03T08:17:53.618Z,99561.00
2022-08-03T08:18:55.100Z,99561.88
2022-08-03T08:19:56.644Z,99560.81
2022-08-03T08:20:59.356Z,99557.31
2022-08-03T08:22:02.750Z,99558.81
2022-08-03T08:23:19.913Z,99555.78
2022-08-03T08:24:28.575Z,99558.16
2022-08-03T08:25:31.570Z,99558.84
2022-08-03T08:26:33.135Z,99557.09
2022-08-03T08:28:29.332Z,99559.41
2022-08-03T08:29:04.281Z,99554.00
2022-08-03T08:30:11.418Z,99555.44
2022-08-03T08:31:14.525Z,99556.34
2022-08-03T08:32:16.235Z,99552.22
2022-08-03T08:33:22.974Z,99553.16
2022-08-03T08:34:25.385Z,99547.34
2022-08-03T08:35:26.993Z,99541.78
2022-08-03T08:36:28.466Z,99551.16
2022-08-03T08:37:29.966Z,99554.09
2022-08-03T08:38:31.429Z,99551.50
2022-08-03T08:39:32.965Z,99550.56
2022-08-03T08:40:34.419Z,99553.97
2022-08-03T08:41:35.979Z,99549.94
2022-08-03T08:42:38.049Z,99554.78
2022-08-03T08:43:39.739Z,99554.19
2022-08-03T08:44:41.214Z,99554.94
2022-08-03T08:45:43.666Z,99558.47
2022-08-03T08:46:45.588Z,99554.34
2022-08-03T08:47:51.483Z,99551.16
2022-08-03T08:48:54.240Z,99548.81
2022-08-03T08:50:09.410Z,99552.22
2022-08-03T08:51:12.726Z,99549.47
2022-08-03T08:52:24.866Z,99546.69
2022-08-03T08:53:29.473Z,99546.06
2022-08-03T08:54:32.625Z,99543.03
2022-08-03T08:55:58.642Z,99547.78
2022-08-03T08:56:58.593Z,99547.22
2022-08-03T08:58:05.528Z,99544.84
2022-08-03T08:59:07.668Z,99542.00
2022-08-03T09:00:11.156Z,99538.78
2022-08-03T09:01:12.741Z,99541.44
2022-08-03T09:02:14.457Z,99542.16
2022-08-03T09:03:29.058Z,99541.53
2022-08-03T09:04:32.456Z,99541.88
2022-08-03T09:05:54.954Z,99539.16
2022-08-03T09:07:18.004Z,99540.38
2022-08-03T09:08:18.077Z,99544.75
2022-08-03T09:10:10.126Z,99537.13
2022-08-03T09:10:41.024Z,99537.03
2022-08-03T09:11:52.427Z,99541.31
2022-08-03T09:13:02.539Z,99538.38
2022-08-03T09:14:04.448Z,99545.84
2022-08-03T09:15:29.537Z,99539.84
2022-08-03T09:16:31.052Z,99541.16
2022-08-03T09:17:40.566Z,99530.25
2022-08-03T09:18:44.095Z,99535.91
2022-08-03T09:20:05.043Z,99533.44
2022-08-03T09:21:35.508Z,99538.72
2022-08-03T09:22:51.762Z,99535.31
2022-08-03T09:24:04.358Z,99534.81
2022-08-03T09:25:23.842Z,99532.09
2022-08-03T09:26:28.075Z,99525.53
2022-08-03T09:27:29.871Z,99519.09
2022-08-03T09:29:01.604Z,99532.25
2022-08-03T09:29:58.040Z,99525.34
2022-08-03T09:31:00.493Z,99532.75
2022-08-03T09:32:03.830Z,99529.34
2022-08-03T09:33:08.310Z,99530.34
2022-08-03T09:34:12.963Z,99536.97
2022-08-03T09:35:14.769Z,99539.00
2022-08-03T09:36:55.884Z,99535.28
2022-08-03T09:38:16.638Z,99532.41
2022-08-03T09:39:37.468Z,99533.03
2022-08-03T09:40:43.268Z,99532.19
2022-08-03T09:42:03.661Z,99532.50
2022-08-03T09:43:05.185Z,99535.56
2022-08-03T09:44:07.280Z,99533.91
2022-08-03T09:45:26.332Z,99533.38
2022-08-03T09:46:27.879Z,99536.06
2022-08-03T09:47:34.421Z,99531.03
2022-08-03T09:48:35.936Z,99528.38
2022-08-03T09:49:39.007Z,99532.97
2022-08-03T09:50:58.449Z,99529.97
2022-08-03T09:52:38.495Z,99533.78
2022-08-03T09:53:42.751Z,99532.28
2022-08-03T09:55:02.076Z,99533.84
2022-08-03T09:56:35.041Z,99527.88
2022-08-03T09:57:27.079Z,99529.56
2022-08-03T09:58:30.713Z,99527.13
2022-08-03T09:59:33.443Z,99533.41
2022-08-03T10:00:53.758Z,99531.53
2022-08-03T10:01:56.699Z,99531.16
2022-08-03T10:03:04.476Z,99521.97
2022-08-03T10:04:05.928Z,99523.06
2022-08-03T10:05:09.085Z,99532.06
2022-08-03T10:06:20.984Z,99528.03
2022-08-03T10:07:24.575Z,99525.22
2022-08-03T10:08:26.039Z,99524.06
2022-08-03T10:09:27.484Z,99524.16
2022-08-03T10:10:43.035Z,99522.84
2022-08-03T10:11:44.823Z,99525.03
2022-08-03T10:12:46.307Z,99522.06
2022-08-03T10:13:47.786Z,99516.41
2022-08-03T10:14:49.432Z,99522.06
2022-08-03T10:16:21.762Z,99521.66
2022-08-03T10:17:12.451Z,99521.38
2022-08-03T10:18:14.190Z,99519.47
2022-08-03T10:19:16.677Z,99517.63
2022-08-03T10:20:18.167Z,99516.34
2022-08-03T10:21:20.671Z,99516.69
2022-08-03T10:22:23.621Z,99516.00
2022-08-03T10:23:25.484Z,99516.34
2022-08-03T10:24:30.413Z,99514.00
2022-08-03T10:25:34.133Z,99514.78
2022-08-03T10:26:38.470Z,99519.06
2022-08-03T10:27:47.245Z,99516.84
2022-08-03T10:28:53.764Z,99515.25
2022-08-03T10:29:57.937Z,99513.50
2022-08-03T10:30:59.715Z,99516.81
2022-08-03T10:32:04.636Z,99515.22
2022-08-03T10:33:51.389Z,99509.84
2022-08-03T10:34:44.498Z,99512.28
2022-08-03T10:35:52.497Z,99502.59
2022-08-03T10:36:59.947Z,99500.72
2022-08-03T10:38:10.219Z,99506.34
2022-08-03T10:39:16.191Z,99507.97
2022-08-03T10:40:39.567Z,99499.59
2022-08-03T10:41:43.753Z,99501.88
2022-08-03T10:42:45.984Z,99504.84
2022-08-03T10:43:56.349Z,99505.16
2022-08-03T10:45:06.052Z,99512.81
2022-08-03T10:46:08.234Z,99500.97
2022-08-03T10:47:10.975Z,99502.69
2022-08-03T10:48:13.596Z,99502.75
2022-08-03T10:49:17.162Z,99489.81
2022-08-03T10:50:36.202Z,99492.53
2022-08-03T10:51:38.396Z,99492.56
2022-08-03T10:53:14.710Z,99500.13
2022-08-03T10:54:40.385Z,99497.34
2022-08-03T10:55:46.332Z,99496.78
2022-08-03T10:56:49.605Z,99486.25
2022-08-03T10:57:56.242Z,99496.06
2022-08-03T10:59:00.496Z,99492.28
2022-08-03T11:00:06.108Z,99489.91
2022-08-03T11:01:09.861Z,99486.22
2022-08-03T11:02:12.062Z,99493.03
2022-08-03T11:03:13.989Z,99493.34
2022-08-03T11:04:17.959Z,99492.00
2022-08-03T11:05:27.560Z,99483.31
2022-08-03T11:06:29.071Z,99479.00
2022-08-03T11:07:39.164Z,99485.53
2022-08-03T11:08:40.655Z,99485.81
2022-08-03T11:09:43.721Z,99475.78
2022-08-03T11:10:45.943Z,99477.69
2022-08-03T11:11:48.589Z,99474.13
2022-08-03T11:12:50.409Z,99482.00
2022-08-03T11:14:02.512Z,99476.56
2022-08-03T11:15:07.425Z,99484.94
2022-08-03T11:16:21.790Z,99476.50
2022-08-03T11:17:24.119Z,99474.59
2022-08-03T11:18:26.994Z,99468.63
2022-08-03T11:19:57.889Z,99480.53
2022-08-03T11:21:00.441Z,99470.94
2022-08-03T11:22:01.966Z,99476.69
2022-08-03T11:23:03.527Z,99471.03
2022-08-03T11:24:06.782Z,99475.88
2022-08-03T11:25:08.587Z,99481.59
2022-08-03T11:26:29.958Z,99474.03
2022-08-03T11:27:34.475Z,99460.75
2022-08-03T11:28:36.944Z,99474.91
2022-08-03T11:29:53.685Z,99482.16
2022-08-03T11:30:55.231Z,99470.47
2022-08-03T11:31:56.897Z,99470.00
2022-08-03T11:32:59.596Z,99469.22
2022-08-03T11:34:08.187Z,99475.22
2022-08-03T11:35:27.919Z,99464.66
2022-08-03T11:36:32.245Z,99466.03
2022-08-03T11:37:34.535Z,99466.78
2022-08-03T11:39:16.702Z,99462.16
2022-08-03T11:40:43.993Z,99460.47
2022-08-03T11:41:45.551Z,99465.38
2022-08-03T11:42:47.027Z,99456.16
2022-08-03T11:43:48.528Z,99455.31
2022-08-03T11:45:00.426Z,99456.97
2022-08-03T11:46:13.093Z,99456.41
2022-08-03T11:47:14.921Z,99454.81
2022-08-03T11:48:16.978Z,99452.38
2022-08-03T11:49:20.697Z,99449.41
2022-08-03T11:50:22.462Z,99450.53
2022-08-03T11:51:29.333Z,99451.06
2022-08-03T11:52:40.534Z,99448.88
2022-08-03T11:53:43.303Z,99453.53
2022-08-03T11:54:45.494Z,99451.53
2022-08-03T11:55:48.105Z,99450.94
2022-08-03T11:56:50.337Z,99457.47
2022-08-03T11:59:01.689Z,99457.97
2022-08-03T11:59:20.690Z,99454.94
2022-08-03T12:00:25.836Z,99447.78
2022-08-03T12:01:27.536Z,99444.28
2022-08-03T12:02:29.007Z,99449.22
2022-08-03T12:03:33.830Z,99448.16
2022-08-03T12:04:52.197Z,99442.78
2022-08-03T12:05:54.827Z,99443.88
2022-08-03T12:07:00.988Z,99456.38
2022-08-03T12:08:06.769Z,99449.31
2022-08-03T12:09:17.296Z,99451.72
2022-08-03T12:10:22.732Z,99446.03
2022-08-03T12:11:24.221Z,99445.22
2022-08-03T12:12:26.042Z,99446.84
2022-08-03T12:14:44.868Z,99437.03
2022-08-03T12:14:58.047Z,99446.00
2022-08-03T12:15:59.545Z,99437.84
2022-08-03T12:17:01.045Z,99436.75
2022-08-03T12:18:12.343Z,99443.28
2022-08-03T12:19:13.723Z,99438.94
2022-08-03T12:20:34.633Z,99434.09
2022-08-03T12:21:56.800Z,99438.44
2022-08-03T12:23:05.260Z,99435.72
2022-08-03T12:24:06.756Z,99442.81
2022-08-03T12:25:09.823Z,99444.75
2022-08-03T12:26:11.848Z,99448.22
2022-08-03T12:27:23.349Z,99436.25
2022-08-03T12:28:35.998Z,99439.53
2022-08-03T12:29:39.716Z,99442.69
2022-08-03T12:30:41.367Z,99440.81
2022-08-03T12:31:42.849Z,99446.47
2022-08-03T12:32:44.911Z,99448.34
2022-08-03T12:34:03.069Z,99440.72
2022-08-03T12:35:05.176Z,99439.03
2022-08-03T12:36:08.516Z,99435.47
2022-08-03T12:37:29.817Z,99438.19
2022-08-03T12:38:36.458Z,99436.63
2022-08-03T12:40:02.698Z,99438.63
2022-08-03T12:41:04.293Z,99433.00
2022-08-03T12:42:06.046Z,99439.56
2022-08-03T12:43:12.195Z,99435.25
2022-08-03T12:44:14.034Z,99431.16
2022-08-03T12:45:27.006Z,99434.75
2022-08-03T12:46:35.663Z,99434.50
2022-08-03T12:47:54.303Z,99435.31
2022-08-03T12:49:04.016Z,99433.41
2022-08-03T12:50:05.992Z,99429.59
2022-08-03T12:51:09.271Z,99427.69
2022-08-03T12:52:10.774Z,99426.06
2022-08-03T12:53:12.250Z,99427.97
2022-08-03T12:54:17.820Z,99423.88
2022-08-03T12:55:26.635Z,99426.81